Time;durP1;ratioP1;P1;durP2;ratioP2;P2;SDS_P1;SDS_P2;PMS_P1;PMS_P2;Temp;Humidity;BMP_temperature;BMP_pressure;BME280_temperature;BME280_humidity;BME280_pressure;Samples;Min_cycle;Max_cycle;Signal;HPM_P1;HPM_P2
2022/08/07 00:01:18;;;;;;;13.77;8.55;;;16.00;96.60;;;;;;5092836;28;20051;-69
2022/08/07 00:03:45;;;;;;;13.48;8.48;;;;;;;;;;5092963;28;20046;-69
2022/08/07 00:06:11;;;;;;;13.15;7.63;;;;;;;;;;5092791;28;20516;-69
2022/08/07 00:08:36;;;;;;;12.13;8.25;;;16.70;99.90;;;;;;5092390;28;20056;-69
2022/08/07 00:11:03;;;;;;;15.25;8.00;;;16.00;96.40;;;;;;5092546;28;20055;-69
2022/08/07 00:13:29;;;;;;;13.13;8.60;;;;;;;;;;5093091;28;20079;-69
2022/08/07 00:15:55;;;;;;;12.95;8.77;;;;;;;;;;5092708;28;20043;-69
2022/08/07 00:18:25;;;;;;;16.55;8.55;;;15.60;97.00;;;;;;5092873;28;20036;-69
2022/08/07 00:20:52;;;;;;;16.23;8.32;;;;;;;;;;5092594;28;20050;-69
2022/08/07 00:23:18;;;;;;;13.35;8.38;;;;;;;;;;5092559;28;20102;-69
2022/08/07 00:25:44;;;;;;;13.65;8.65;;;;;;;;;;5092611;28;20044;-69
2022/08/07 00:28:10;;;;;;;14.35;8.40;;;;;;;;;;5092438;28;20118;-69
2022/08/07 00:30:36;;;;;;;13.55;8.57;;;;;;;;;;5092277;28;20476;-69
2022/08/07 00:33:02;;;;;;;15.57;9.07;;;;;;;;;;5092698;28;20384;-69
2022/08/07 00:35:28;;;;;;;15.65;8.90;;;;;;;;;;5092650;28;20028;-69
2022/08/07 00:37:54;;;;;;;16.15;8.77;;;;;;;;;;5092330;28;20047;-69
2022/08/07 00:40:21;;;;;;;13.15;9.10;;;;;;;;;;5092602;28;20435;-69
2022/08/07 00:42:47;;;;;;;12.05;8.77;;;;;;;;;;5075677;28;20043;-69
2022/08/07 00:45:13;;;;;;;15.38;9.75;;;;;;;;;;5092544;28;20040;-69
2022/08/07 00:47:39;;;;;;;17.88;9.68;;;;;;;;;;5092570;28;20109;-69
2022/08/07 00:50:06;;;;;;;12.98;9.27;;;16.60;99.90;;;;;;5092220;28;20044;-69
2022/08/07 00:52:32;;;;;;;13.95;9.30;;;;;;;;;;5075368;28;20076;-69
2022/08/07 00:54:58;;;;;;;16.35;9.10;;;;;;;;;;5092312;28;20032;-69
2022/08/07 00:57:25;;;;;;;16.83;8.85;;;15.20;98.10;;;;;;5075372;28;20043;-69
2022/08/07 00:59:51;;;;;;;12.85;8.75;;;;;;;;;;5092438;28;20116;-69
2022/08/07 01:02:17;;;;;;;16.63;9.30;;;15.50;99.90;;;;;;5091993;28;20054;-70
2022/08/07 01:04:43;;;;;;;12.73;8.95;;;;;;;;;;5092371;28;20126;-69
2022/08/07 01:07:09;;;;;;;15.57;9.40;;;;;;;;;;5075428;28;20442;-69
2022/08/07 01:09:36;;;;;;;13.05;8.75;;;;;;;;;;5092094;28;20048;-69
2022/08/07 01:12:02;;;;;;;15.82;8.75;;;;;;;;;;5092092;28;20048;-69
2022/08/07 01:14:28;;;;;;;15.82;8.82;;;;;;;;;;5092073;28;20047;-69
2022/08/07 01:16:55;;;;;;;15.73;9.10;;;;;;;;;;5092223;28;20043;-69
2022/08/07 01:19:23;;;;;;;14.93;8.70;;;15.00;98.70;;;;;;5092115;28;20392;-69
2022/08/07 01:21:51;;;;;;;12.90;8.88;;;15.00;98.80;;;;;;5092080;28;20071;-69
2022/08/07 01:24:19;;;;;;;13.40;8.05;;;15.00;98.80;;;;;;5091985;28;20059;-69
2022/08/07 01:26:45;;;;;;;12.82;7.97;;;;;;;;;;5092194;28;20040;-69
2022/08/07 01:29:11;;;;;;;13.30;8.65;;;;;;;;;;5091745;28;20044;-69
2022/08/07 01:31:38;;;;;;;11.38;7.60;;;15.20;98.40;;;;;;5075084;28;20044;-69
2022/08/07 01:34:04;;;;;;;12.73;7.75;;;;;;;;;;5091757;28;20481;-69
2022/08/07 01:36:31;;;;;;;11.68;7.95;;;15.00;98.80;;;;;;5091951;28;20094;-69
2022/08/07 01:38:57;;;;;;;10.38;7.40;;;;;;;;;;5092137;28;20404;-69
2022/08/07 01:41:24;;;;;;;12.68;7.28;;;15.10;98.40;;;;;;5074819;28;20044;-69
2022/08/07 01:43:50;;;;;;;12.85;7.22;;;15.00;98.70;;;;;;5075197;28;20040;-69
2022/08/07 01:46:17;;;;;;;11.85;7.68;;;;;;;;;;5091716;28;20043;-69
2022/08/07 01:48:44;;;;;;;9.63;7.05;;;15.00;99.00;;;;;;5091854;28;20043;-69
2022/08/07 01:51:19;;;;;;;11.70;7.85;;;14.90;98.20;;;;;;5091632;28;20083;-69
2022/08/07 01:53:48;;;;;;;11.43;7.65;;;14.90;99.10;;;;;;5093076;28;20032;-69
2022/08/07 01:56:21;;;;;;;13.95;7.75;;;15.10;99.10;;;;;;5091716;28;20043;-69
2022/08/07 01:58:59;;;;;;;12.77;7.70;;;15.90;99.90;;;;;;5092263;28;20040;-69
2022/08/07 02:01:26;;;;;;;11.73;7.45;;;15.10;99.20;;;;;;5093585;28;20115;-69
2022/08/07 02:04:10;;;;;;;12.07;7.07;;;15.10;98.50;;;;;;5095996;28;20051;-69
2022/08/07 02:06:38;;;;;;;15.23;7.85;;;14.90;99.20;;;;;;5095015;28;20430;-69
2022/08/07 02:09:06;;;;;;;13.23;7.47;;;15.10;99.20;;;;;;5094978;28;20056;-69
2022/08/07 02:11:39;;;;;;;12.57;7.80;;;16.20;99.90;;;;;;5094939;28;20543;-69
2022/08/07 02:14:06;;;;;;;12.13;8.23;;;15.00;99.20;;;;;;5096275;28;20040;-69
2022/08/07 02:16:35;;;;;;;11.23;7.55;;;15.00;99.30;;;;;;5094989;28;20480;-69
2022/08/07 02:19:04;;;;;;;17.25;8.05;;;14.80;99.20;;;;;;5094914;28;20047;-69
2022/08/07 02:21:31;;;;;;;13.13;7.45;;;14.80;99.20;;;;;;5095149;28;20032;-70
2022/08/07 02:23:58;;;;;;;13.48;7.80;;;14.90;98.80;;;;;;5094823;28;20052;-69
2022/08/07 02:26:24;;;;;;;16.70;8.27;;;;;;;;;;5096104;28;20085;-69
2022/08/07 02:28:51;;;;;;;13.88;7.90;;;15.00;99.00;;;;;;5078126;28;20040;-69
2022/08/07 02:31:19;;;;;;;14.48;8.45;;;14.90;99.40;;;;;;5094582;28;20108;-69
2022/08/07 02:33:46;;;;;;;12.30;7.68;;;14.80;99.00;;;;;;5094662;28;20040;-69
2022/08/07 02:36:13;;;;;;;12.18;7.65;;;14.80;99.40;;;;;;5094598;28;20042;-69
2022/08/07 02:38:40;;;;;;;13.15;8.07;;;;;;;;;;5094664;28;20044;-69
2022/08/07 02:41:06;;;;;;;13.30;8.65;;;14.60;99.10;;;;;;5094541;28;20043;-69
2022/08/07 02:43:34;;;;;;;13.98;7.85;;;14.60;99.50;;;;;;5094484;28;20101;-69
2022/08/07 02:46:03;;;;;;;10.70;7.20;;;14.50;99.50;;;;;;5094411;28;20083;-69
2022/08/07 02:48:29;;;;;;;14.70;8.00;;;;;;;;;;5094354;28;20050;-69
2022/08/07 02:50:58;;;;;;;10.70;7.43;;;14.50;99.60;;;;;;5094241;28;20083;-69
2022/08/07 02:53:31;;;;;;;12.32;8.15;;;14.80;99.70;;;;;;5094191;28;20449;-69
2022/08/07 02:55:58;;;;;;;15.82;8.15;;;14.60;99.70;;;;;;5093017;28;20035;-69
2022/08/07 02:58:26;;;;;;;15.15;7.88;;;14.70;99.80;;;;;;5094136;28;20036;-69
2022/08/07 03:00:56;;;;;;;13.40;7.88;;;14.60;99.70;;;;;;5094279;28;20040;-69
2022/08/07 03:03:23;;;;;;;13.20;8.20;;;14.70;99.80;;;;;;5095033;28;20115;-69
2022/08/07 03:05:51;;;;;;;11.07;7.70;;;14.70;99.90;;;;;;5093964;28;20038;-69
2022/08/07 03:08:19;;;;;;;13.07;7.43;;;14.10;99.90;;;;;;5093783;28;20139;-69
2022/08/07 03:10:45;;;;;;;12.80;7.97;;;14.40;99.50;;;;;;5093726;28;20044;-69
2022/08/07 03:13:11;;;;;;;13.68;8.45;;;;;;;;;;5092807;28;20098;-69
2022/08/07 03:15:37;;;;;;;13.27;8.00;;;;;;;;;;5093844;28;20078;-69
2022/08/07 03:18:04;;;;;;;12.20;8.00;;;;;;;;;;5093805;28;20044;-69
2022/08/07 03:20:30;;;;;;;11.35;8.10;;;;;;;;;;5093790;28;20035;-69
2022/08/07 03:22:57;;;;;;;11.48;7.95;;;14.20;99.90;;;;;;5093647;28;20048;-69
2022/08/07 03:25:24;;;;;;;15.70;8.35;;;;;;;;;;5093515;28;20047;-69
2022/08/07 03:27:51;;;;;;;12.63;8.65;;;14.30;99.90;;;;;;5093551;28;20484;-69
2022/08/07 03:30:17;;;;;;;14.57;8.45;;;;;;;;;;5076905;28;20079;-69
2022/08/07 03:32:46;;;;;;;13.95;8.07;;;14.40;99.90;;;;;;5093496;28;20123;-69
2022/08/07 03:35:16;;;;;;;13.73;8.60;;;14.20;99.90;;;;;;5094919;28;20044;-69
2022/08/07 03:37:44;;;;;;;13.95;8.55;;;14.40;99.90;;;;;;5094670;28;20488;-69
2022/08/07 03:40:10;;;;;;;15.23;8.68;;;;;;;;;;5093451;28;20123;-69
2022/08/07 03:42:36;;;;;;;13.63;8.38;;;;;;;;;;5093569;28;20036;-69
2022/08/07 03:45:04;;;;;;;12.43;8.23;;;14.30;99.90;;;;;;5093629;28;20040;-69
2022/08/07 03:47:31;;;;;;;14.80;8.77;;;14.10;99.80;;;;;;5093209;28;20040;-69
2022/08/07 03:49:57;;;;;;;14.35;8.13;;;;;;;;;;5093172;28;20056;-69
2022/08/07 03:52:26;;;;;;;18.50;8.60;;;14.20;99.90;;;;;;5059549;28;20043;-69
2022/08/07 03:54:53;;;;;;;16.50;8.85;;;14.30;99.90;;;;;;5092991;28;20043;-69
2022/08/07 03:57:20;;;;;;;20.10;8.30;;;14.20;99.90;;;;;;5076162;28;20075;-69
2022/08/07 03:59:46;;;;;;;16.25;7.90;;;;;;;;;;5076134;28;20387;-69
2022/08/07 04:02:13;;;;;;;15.15;8.40;;;14.30;99.90;;;;;;5092886;28;20381;-69
2022/08/07 04:04:41;;;;;;;12.52;8.38;;;14.20;99.90;;;;;;5076253;28;20148;-69
2022/08/07 04:07:07;;;;;;;14.35;7.93;;;;;;;;;;5075708;28;20181;-69
2022/08/07 04:09:35;;;;;;;14.10;8.23;;;14.10;99.90;;;;;;5093039;28;20511;-69
2022/08/07 04:12:01;;;;;;;13.30;7.88;;;;;;;;;;5094358;28;20112;-69
2022/08/07 04:14:27;;;;;;;12.95;8.18;;;14.20;99.90;;;;;;5092781;28;20047;-69
2022/08/07 04:16:54;;;;;;;12.07;7.95;;;;;;;;;;5076130;28;20051;-69
2022/08/07 04:19:20;;;;;;;14.65;8.35;;;;;;;;;;5092671;28;20370;-69
2022/08/07 04:21:46;;;;;;;12.52;8.23;;;;;;;;;;5092605;28;20044;-69
2022/08/07 04:24:12;;;;;;;11.68;8.00;;;;;;;;;;5092128;28;20048;-69
2022/08/07 04:26:39;;;;;;;13.40;8.18;;;14.20;99.90;;;;;;5092396;28;20065;-69
2022/08/07 04:29:10;;;;;;;14.95;8.75;;;14.80;99.90;;;;;;5092553;28;20050;-69
2022/08/07 04:31:40;;;;;;;18.77;9.07;;;13.60;99.90;;;;;;5092445;28;20046;-69
2022/08/07 04:34:07;;;;;;;14.10;8.23;;;14.30;99.90;;;;;;5075556;28;20365;-69
2022/08/07 04:36:33;;;;;;;15.57;9.20;;;14.10;99.90;;;;;;5092722;28;20058;-69
2022/08/07 04:39:00;;;;;;;13.88;8.27;;;14.00;99.90;;;;;;5075558;28;20123;-69
2022/08/07 04:41:26;;;;;;;11.10;7.32;;;;;;;;;;5092389;28;20487;-69
2022/08/07 04:43:54;;;;;;;13.27;7.65;;;;;;;;;;5075691;28;20066;-69
2022/08/07 04:46:43;;;;;;;12.73;8.23;;;14.20;99.90;;;;;;5092559;28;20054;-69
2022/08/07 04:49:09;;;;;;;13.13;7.88;;;;;;;;;;5092201;28;20075;-69
2022/08/07 04:52:15;;;;;;;15.57;8.15;;;14.30;99.90;;;;;;5092167;28;20040;-69
2022/08/07 04:54:44;;;;;;;11.82;8.10;;;14.10;99.70;;;;;;5123343;27;20563;-69
2022/08/07 04:57:16;;;;;;;15.20;8.25;;;14.30;99.80;;;;;;5092219;28;20032;-69
2022/08/07 04:59:50;;;;;;;15.55;8.35;;;15.20;99.90;;;;;;5092135;28;20040;-69
2022/08/07 05:02:30;;;;;;;13.75;8.07;;;;;;;;;;5092151;28;20515;-69
2022/08/07 05:05:11;;;;;;;12.23;7.82;;;14.40;99.90;;;;;;5092203;28;20457;-69
2022/08/07 05:07:42;;;;;;;13.55;8.13;;;14.40;99.90;;;;;;5092220;28;20099;-69
2022/08/07 05:10:17;;;;;;;11.93;8.10;;;14.50;99.90;;;;;;5092073;28;20052;-69
2022/08/07 05:13:06;;;;;;;17.98;8.93;;;14.50;99.90;;;;;;5093778;28;20127;-69
2022/08/07 05:15:37;;;;;;;14.50;8.02;;;;;;;;;;5092272;28;20040;-69
2022/08/07 05:18:07;;;;;;;13.23;8.15;;;15.30;99.90;;;;;;5075206;28;20036;-69
2022/08/07 05:20:40;;;;;;;13.27;7.93;;;14.60;99.90;;;;;;5092258;28;20373;-69
2022/08/07 05:23:44;;;;;;;17.02;7.75;;;14.70;99.70;;;;;;5092008;28;20040;-69
2022/08/07 05:26:17;;;;;;;11.85;7.57;;;13.50;99.90;;;;;;5125419;28;20092;-69
2022/08/07 05:28:44;;;;;;;15.68;8.25;;;15.50;99.90;;;;;;5092170;28;20070;-69
2022/08/07 05:31:15;;;;;;;13.98;8.38;;;15.00;99.90;;;;;;5092020;28;20120;-69
2022/08/07 05:33:42;;;;;;;13.40;7.65;;;14.60;99.90;;;;;;5091822;28;20040;-69
2022/08/07 05:36:09;;;;;;;15.68;8.50;;;14.80;99.90;;;;;;5092152;28;20040;-69
2022/08/07 05:38:36;;;;;;;12.07;8.35;;;14.90;99.90;;;;;;5095884;28;20040;-69
2022/08/07 05:41:02;;;;;;;14.38;8.25;;;;;;;;;;5096050;28;20047;-69
2022/08/07 05:43:28;;;;;;;11.35;7.47;;;;;;;;;;5078694;28;20040;-69
2022/08/07 05:45:56;;;;;;;13.85;7.47;;;14.90;99.90;;;;;;5095708;28;20044;-69
2022/08/07 05:48:22;;;;;;;14.90;7.47;;;15.00;99.90;;;;;;5095842;28;20040;-69
2022/08/07 05:50:49;;;;;;;13.77;7.93;;;;;;;;;;5095428;28;20047;-69
2022/08/07 05:53:15;;;;;;;13.30;7.65;;;;;;;;;;5095623;28;20071;-69
2022/08/07 05:55:41;;;;;;;12.65;7.60;;;;;;;;;;5095401;28;20169;-69
2022/08/07 05:58:09;;;;;;;11.98;7.03;;;;;;;;;;5095277;28;20060;-69
2022/08/07 06:00:37;;;;;;;12.70;6.88;;;15.20;99.90;;;;;;5095363;28;20059;-69
2022/08/07 06:03:05;;;;;;;15.85;7.07;;;15.20;99.80;;;;;;5095178;28;20048;-69
2022/08/07 06:05:32;;;;;;;12.02;6.35;;;15.30;99.40;;;;;;5095164;28;20032;-69
2022/08/07 06:07:59;;;;;;;11.68;6.82;;;15.40;99.50;;;;;;5094841;28;20052;-69
2022/08/07 06:10:26;;;;;;;11.25;6.80;;;15.60;99.50;;;;;;5095302;28;20392;-69
2022/08/07 06:12:53;;;;;;;11.52;7.25;;;;;;;;;;5094972;28;20064;-69
2022/08/07 06:15:20;;;;;;;12.60;6.90;;;;;;;;;;5078525;28;20400;-69
2022/08/07 06:17:46;;;;;;;10.90;7.00;;;;;;;;;;5095028;28;20548;-69
2022/08/07 06:20:13;;;;;;;10.63;6.60;;;;;;;;;;5094984;28;20036;-69
2022/08/07 06:22:43;;;;;;;11.07;6.97;;;16.60;99.90;;;;;;5095096;28;20487;-69
2022/08/07 06:25:09;;;;;;;12.68;6.40;;;16.20;99.90;;;;;;5078050;28;20100;-69
2022/08/07 06:27:35;;;;;;;10.82;6.35;;;;;;;;;;5094812;28;20132;-69
2022/08/07 06:30:01;;;;;;;12.45;6.32;;;;;;;;;;5094811;28;20050;-69
2022/08/07 06:32:27;;;;;;;10.07;6.22;;;;;;;;;;5094537;28;20044;-69
2022/08/07 06:34:53;;;;;;;11.10;6.68;;;;;;;;;;5094886;28;20392;-69
2022/08/07 06:37:19;;;;;;;11.25;6.40;;;;;;;;;;5094573;28;20036;-69
2022/08/07 06:39:45;;;;;;;13.30;6.47;;;;;;;;;;5094738;28;20074;-69
2022/08/07 06:42:19;;;;;;;10.57;6.45;;;16.00;99.10;;;;;;5094663;28;20043;-69
2022/08/07 06:44:48;;;;;;;9.00;5.82;;;16.00;99.00;;;;;;5094492;28;20507;-69
2022/08/07 06:47:14;;;;;;;10.90;5.82;;;;;;;;;;5093977;28;20549;-69
2022/08/07 06:49:42;;;;;;;10.32;5.60;;;16.00;98.40;;;;;;5094284;28;20173;-69
2022/08/07 06:52:10;;;;;;;9.52;5.72;;;16.30;98.90;;;;;;5094160;28;20556;-69
2022/08/07 06:54:38;;;;;;;10.80;5.93;;;16.10;98.80;;;;;;5094266;28;20048;-69
2022/08/07 06:57:05;;;;;;;11.90;6.07;;;17.20;99.90;;;;;;5095878;28;20040;-69
2022/08/07 06:59:38;;;;;;;13.57;6.97;;;16.30;98.70;;;;;;5094233;28;20105;-69
2022/08/07 07:02:07;;;;;;;12.55;6.63;;;16.40;98.80;;;;;;5094090;28;20467;-69
2022/08/07 07:04:33;;;;;;;9.75;6.35;;;;;;;;;;5094040;28;20101;-69
2022/08/07 07:07:01;;;;;;;12.77;6.28;;;16.60;98.60;;;;;;5093849;28;20067;-69
2022/08/07 07:09:30;;;;;;;13.23;6.30;;;16.50;98.70;;;;;;5093952;28;20078;-69
2022/08/07 07:11:56;;;;;;;9.05;6.20;;;;;;;;;;5093896;28;20118;-69
2022/08/07 07:14:26;;;;;;;11.25;6.60;;;16.60;98.80;;;;;;5094115;28;20457;-69
2022/08/07 07:16:57;;;;;;;11.73;7.00;;;16.70;98.40;;;;;;5093817;28;20039;-69
2022/08/07 07:19:30;;;;;;;10.18;6.20;;;;;;;;;;5076899;28;20039;-69
2022/08/07 07:21:56;;;;;;;11.13;6.70;;;;;;;;;;5076794;28;20079;-69
2022/08/07 07:24:22;;;;;;;12.02;6.35;;;;;;;;;;5093501;28;20039;-69
2022/08/07 07:26:51;;;;;;;8.45;5.90;;;;;;;;;;5076838;28;20043;-69
2022/08/07 07:29:23;;;;;;;10.60;6.03;;;16.90;98.50;;;;;;5076789;28;20055;-69
2022/08/07 07:31:54;;;;;;;9.38;4.97;;;17.10;98.00;;;;;;5093237;28;20512;-69
2022/08/07 07:34:27;;;;;;;10.98;5.07;;;17.00;98.30;;;;;;5094689;28;20412;-69
2022/08/07 07:36:53;;;;;;;10.25;5.05;;;;;;;;;;5093254;28;20533;-69
2022/08/07 07:39:20;;;;;;;10.25;5.32;;;;;;;;;;5093143;28;20483;-69
2022/08/07 07:41:49;;;;;;;9.05;5.65;;;17.30;97.70;;;;;;5093079;28;20046;-69
2022/08/07 07:44:16;;;;;;;9.73;5.75;;;;;;;;;;5093052;28;20040;-69
2022/08/07 07:46:42;;;;;;;10.40;5.65;;;;;;;;;;5093039;28;20131;-69
2022/08/07 07:49:09;;;;;;;9.65;5.47;;;;;;;;;;5093038;28;20048;-69
2022/08/07 07:51:35;;;;;;;14.15;5.78;;;;;;;;;;5093260;28;20577;-69
2022/08/07 07:54:02;;;;;;;15.32;6.10;;;;;;;;;;5092799;28;20084;-69
2022/08/07 07:56:30;;;;;;;10.43;6.22;;;17.50;97.60;;;;;;5093182;28;20123;-69
2022/08/07 07:58:58;;;;;;;10.60;5.65;;;;;;;;;;5092317;28;20043;-69
2022/08/07 08:01:24;;;;;;;9.70;5.90;;;;;;;;;;5092902;28;20048;-69
2022/08/07 08:03:53;;;;;;;10.93;5.68;;;18.00;97.40;;;;;;5093214;28;20051;-69
2022/08/07 08:06:19;;;;;;;10.75;5.50;;;;;;;;;;5092798;28;20080;-70
2022/08/07 08:08:46;;;;;;;10.52;5.43;;;;;;;;;;5092347;28;20099;-69
2022/08/07 08:11:12;;;;;;;10.90;5.25;;;;;;;;;;5092832;28;20040;-69
2022/08/07 08:13:42;;;;;;;11.15;5.47;;;17.90;96.40;;;;;;5092905;28;20050;-69
2022/08/07 08:16:11;;;;;;;11.23;5.80;;;18.10;96.40;;;;;;5092702;28;20127;-69
2022/08/07 08:18:37;;;;;;;8.70;5.53;;;17.90;96.30;;;;;;5075901;28;20048;-69
2022/08/07 08:21:04;;;;;;;12.07;5.50;;;;;;;;;;5075709;28;20036;-69
2022/08/07 08:29:04;;;;;;;7.90;5.60;;;;;;;;;;5092447;28;20048;-69
2022/08/07 08:31:34;;;;;;;7.88;4.93;;;18.30;96.20;;;;;;5092627;28;20044;-69
2022/08/07 08:34:02;;;;;;;6.82;5.00;;;18.40;96.10;;;;;;5093733;28;20040;-69
2022/08/07 08:36:31;;;;;;;7.95;5.15;;;18.50;95.90;;;;;;5092232;28;20464;-69
2022/08/07 08:39:00;;;;;;;11.20;5.50;;;18.70;95.70;;;;;;5092378;28;20115;-69
2022/08/07 08:41:52;;;;;;;10.23;4.90;;;18.70;95.00;;;;;;5075850;28;20110;-69
2022/08/07 08:44:24;;;;;;;8.48;4.78;;;18.70;95.80;;;;;;5075363;28;20044;-69
2022/08/07 08:46:59;;;;;;;;;;;18.80;96.30;;;;;;5092911;28;20044;-69
2022/08/07 08:49:32;;;;;;;9.07;4.95;;;19.30;95.50;;;;;;5092168;28;19916;-69
2022/08/07 08:52:17;;;;;;;9.82;5.78;;;19.20;95.30;;;;;;5091951;28;20123;-69
2022/08/07 08:55:00;;;;;;;8.25;4.70;;;20.00;99.00;;;;;;5092333;28;20119;-70
2022/08/07 08:57:33;;;;;;;12.18;5.00;;;;;;;;;;5091978;28;20051;-70
2022/08/07 09:00:06;;;;;;;10.43;5.45;;;19.30;93.80;;;;;;5092276;28;20048;-70
2022/08/07 09:02:32;;;;;;;8.18;5.25;;;;;;;;;;5091934;28;20052;-70
2022/08/07 09:05:12;;;;;;;7.85;4.50;;;19.30;94.10;;;;;;5092124;28;20051;-69
2022/08/07 09:07:48;;;;;;;12.00;4.97;;;19.50;93.10;;;;;;5091644;28;20059;-69
2022/08/07 09:10:31;;;;;;;11.00;5.45;;;19.50;93.80;;;;;;5092195;28;20070;-69
2022/08/07 09:12:57;;;;;;;11.43;5.00;;;;;;;;;;5095847;28;20135;-69
2022/08/07 09:15:30;;;;;;;10.05;4.90;;;;;;;;;;5095752;28;20043;-69
2022/08/07 09:18:14;;;;;;;7.82;4.85;;;19.30;92.40;;;;;;5095818;28;20043;-69
2022/08/07 09:21:14;;;;;;;10.20;5.18;;;19.30;92.60;;;;;;5095773;28;20046;-69
2022/08/07 09:23:52;;;;;;;7.35;4.18;;;;;;;;;;5095718;28;20044;-69
2022/08/07 09:26:44;;;;;;;9.18;4.57;;;19.80;93.20;;;;;;5078748;28;20047;-69
2022/08/07 09:29:13;;;;;;;6.13;3.85;;;19.70;97.10;;;;;;5095665;28;20052;-69
2022/08/07 09:31:54;;;;;;;6.65;4.13;;;20.20;92.90;;;;;;5095999;28;20535;-70
2022/08/07 09:34:27;;;;;;;9.98;4.28;;;20.20;92.10;;;;;;5095812;28;20074;-69
2022/08/07 09:37:15;;;;;;;7.20;4.00;;;20.50;91.30;;;;;;5095636;28;20439;-70
2022/08/07 09:40:02;;;;;;;9.75;4.22;;;21.10;96.00;;;;;;5096789;28;20438;-70
2022/08/07 09:42:47;;;;;;;8.23;4.10;;;;;;;;;;5095368;28;20474;-69
2022/08/07 09:45:50;;;;;;;9.30;3.80;;;20.40;90.80;;;;;;5095552;28;20039;-69
2022/08/07 09:48:35;;;;;;;9.88;4.05;;;20.60;91.30;;;;;;5095551;28;20117;-69
2022/08/07 09:51:33;;;;;;;7.50;4.28;;;20.90;95.60;;;;;;5096529;28;20039;-69
2022/08/07 09:54:01;;;;;;;8.98;4.18;;;20.70;90.90;;;;;;5095469;28;20044;-69
2022/08/07 09:56:32;;;;;;;8.63;4.03;;;21.40;95.60;;;;;;5095273;28;20039;-69
2022/08/07 09:59:26;;;;;;;8.25;4.45;;;20.50;90.40;;;;;;5095388;28;20042;-69
2022/08/07 10:02:18;;;;;;;8.10;4.18;;;20.00;91.90;;;;;;5078401;28;20123;-69
2022/08/07 10:04:44;;;;;;;9.57;4.35;;;;;;;;;;5095427;28;20071;-69
2022/08/07 10:07:48;;;;;;;9.35;4.28;;;21.10;92.60;;;;;;5078167;28;20499;-70
2022/08/07 10:10:35;;;;;;;8.27;5.07;;;20.80;95.50;;;;;;5095026;28;20052;-69
2022/08/07 10:13:09;;;;;;;8.82;4.40;;;21.00;93.60;;;;;;5094996;28;20055;-69
2022/08/07 10:15:57;;;;;;;8.30;4.00;;;20.20;90.60;;;;;;5077988;28;20446;-69
2022/08/07 10:18:33;;;;;;;8.80;3.88;;;20.00;91.40;;;;;;5094960;28;20036;-69
2022/08/07 10:21:28;;;;;;;6.75;3.70;;;19.50;95.40;;;;;;5095302;28;20061;-69
2022/08/07 10:24:22;;;;;;;8.35;3.75;;;20.10;91.60;;;;;;5094339;28;20040;-69
2022/08/07 10:26:53;;;;;;;8.75;3.80;;;;;;;;;;5116050;27;20130;-69
2022/08/07 10:29:34;;;;;;;7.97;3.40;;;21.20;95.40;;;;;;5094829;28;20036;-69
2022/08/07 10:32:27;;;;;;;6.57;3.40;;;20.90;95.20;;;;;;5077942;28;20040;-69
2022/08/07 10:35:18;;;;;;;6.90;3.88;;;20.20;90.90;;;;;;5094696;28;20044;-69
2022/08/07 10:37:56;;;;;;;6.72;4.00;;;20.50;95.20;;;;;;5078151;28;20074;-69
2022/08/07 10:40:39;;;;;;;7.97;3.42;;;20.30;91.10;;;;;;5094985;28;20388;-69
2022/08/07 10:43:14;;;;;;;7.43;3.25;;;;;;;;;;5096005;28;20043;-69
2022/08/07 10:45:48;;;;;;;8.10;3.10;;;20.80;95.20;;;;;;5094530;28;20051;-69
2022/08/07 10:48:32;;;;;;;3.70;2.75;;;20.70;95.20;;;;;;5077925;28;20436;-69
2022/08/07 10:51:49;;;;;;;6.78;3.30;;;20.40;90.60;;;;;;5094361;28;20100;-69
2022/08/07 10:54:27;;;;;;;4.80;2.78;;;20.40;90.20;;;;;;5094550;28;20062;-69
2022/08/07 10:57:18;;;;;;;7.00;2.72;;;21.00;94.80;;;;;;5094323;28;20055;-69
2022/08/07 10:59:52;;;;;;;6.00;2.80;;;20.90;94.10;;;;;;5094283;28;20233;-69
2022/08/07 11:02:45;;;;;;;4.65;2.80;;;20.50;93.10;;;;;;5094202;28;20203;-69
2022/08/07 11:05:13;;;;;;;7.50;3.10;;;20.60;94.10;;;;;;5094327;28;20044;-69
2022/08/07 11:07:57;;;;;;;6.60;2.33;;;20.30;93.80;;;;;;5093893;28;20400;-69
2022/08/07 11:10:33;;;;;;;6.30;2.60;;;21.50;93.90;;;;;;5093977;28;20177;-69
2022/08/07 11:13:35;;;;;;;4.90;2.50;;;21.10;87.30;;;;;;5093855;28;20502;-69
2022/08/07 11:16:10;;;;;;;4.90;2.40;;;20.90;92.60;;;;;;5096078;27;20040;-69
2022/08/07 11:18:41;;;;;;;3.72;1.92;;;21.10;92.30;;;;;;5093807;28;20047;-69
2022/08/07 11:21:17;;;;;;;5.57;2.50;;;21.60;92.10;;;;;;5093795;28;20041;-69
2022/08/07 11:24:10;;;;;;;5.78;2.30;;;21.30;91.60;;;;;;5076878;28;20438;-69
2022/08/07 11:26:36;;;;;;;4.70;2.20;;;;;;;;;;5093541;28;20055;-69
2022/08/07 11:29:27;;;;;;;4.40;1.85;;;20.90;91.70;;;;;;5093617;28;20032;-69
2022/08/07 11:31:59;;;;;;;2.50;1.50;;;21.00;91.00;;;;;;5093460;28;20044;-69
2022/08/07 11:34:45;;;;;;;5.90;1.50;;;21.60;81.70;;;;;;5075848;28;20036;-69
2022/08/07 11:37:27;;;;;;;5.18;1.90;;;21.50;80.60;;;;;;5093490;28;20089;-69
2022/08/07 11:40:14;;;;;;;2.65;1.67;;;21.60;78.70;;;;;;5093709;28;20388;-69
2022/08/07 11:42:40;;;;;;;6.97;1.88;;;22.30;90.40;;;;;;5076433;28;20044;-69
2022/08/07 11:45:06;;;;;;;5.00;1.77;;;;;;;;;;5093212;28;20044;-69
2022/08/07 11:47:39;;;;;;;3.05;1.90;;;22.60;90.10;;;;;;5093130;28;20036;-69
2022/08/07 11:50:26;;;;;;;3.17;1.60;;;22.50;84.10;;;;;;5076279;28;20036;-69
2022/08/07 11:53:27;;;;;;;4.55;1.40;;;21.80;88.20;;;;;;5093117;28;20040;-69
2022/08/07 11:56:16;;;;;;;2.70;1.73;;;22.00;78.80;;;;;;5093065;28;20040;-69
2022/08/07 11:59:29;;;;;;;3.45;2.10;;;22.70;88.70;;;;;;5092707;28;20071;-69
2022/08/07 12:02:07;;;;;;;4.13;1.85;;;23.10;88.50;;;;;;5099678;27;20504;-69
2022/08/07 12:04:51;;;;;;;4.47;1.95;;;23.00;88.10;;;;;;5092990;28;20040;-69
2022/08/07 12:07:22;;;;;;;4.60;2.10;;;21.90;87.60;;;;;;5092740;28;20068;-69
2022/08/07 12:10:12;;;;;;;4.53;2.00;;;23.30;87.30;;;;;;5076157;28;20380;-69
2022/08/07 12:12:53;;;;;;;3.33;1.67;;;22.70;77.10;;;;;;5092699;28;20044;-69
2022/08/07 12:15:54;;;;;;;3.13;1.67;;;23.60;85.70;;;;;;5092681;28;20083;-69
2022/08/07 12:18:43;;;;;;;6.75;2.00;;;22.90;85.60;;;;;;5092629;28;20107;-69
2022/08/07 12:21:24;;;;;;;4.00;1.85;;;23.10;75.10;;;;;;5092663;28;20046;-69
2022/08/07 12:24:01;;;;;;;8.40;2.50;;;23.60;85.10;;;;;;5092567;28;20040;-69
2022/08/07 12:26:36;;;;;;;3.80;2.78;;;23.30;75.40;;;;;;5092798;28;20274;-69
2022/08/07 12:29:06;;;;;;;4.53;2.80;;;23.80;85.80;;;;;;5092503;28;20040;-69
2022/08/07 12:32:02;;;;;;;3.75;2.80;;;23.70;85.90;;;;;;5093262;28;20040;-69
2022/08/07 12:34:31;;;;;;;3.78;2.72;;;23.80;86.20;;;;;;5119037;27;20123;-69
2022/08/07 12:36:59;;;;;;;7.65;3.15;;;23.70;75.70;;;;;;5092281;28;20408;-69
2022/08/07 12:39:29;;;;;;;8.43;3.25;;;24.00;85.70;;;;;;5093604;28;20093;-69
2022/08/07 12:41:57;;;;;;;4.82;3.05;;;22.60;85.60;;;;;;5092371;28;20123;-69
2022/08/07 12:44:24;;;;;;;5.22;3.10;;;23.30;86.60;;;;;;5092325;28;20055;-69
2022/08/07 12:47:27;;;;;;;7.78;3.40;;;23.50;74.90;;;;;;5092297;28;20441;-69
2022/08/07 12:50:12;;;;;;;10.85;3.80;;;23.00;76.00;;;;;;5092147;28;20050;-69
2022/08/07 12:52:49;;;;;;;9.88;3.92;;;23.40;77.20;;;;;;5092075;28;20131;-69
2022/08/07 12:55:14;;;;;;;8.93;3.85;;;22.00;86.70;;;;;;5092270;28;20484;-69
2022/08/07 12:57:43;;;;;;;7.85;3.92;;;23.10;87.50;;;;;;5092139;28;20094;-69
2022/08/07 13:00:10;;;;;;;6.28;3.70;;;23.20;82.80;;;;;;5093487;28;20032;-69
2022/08/07 13:02:55;;;;;;;8.18;3.60;;;23.10;88.50;;;;;;5091989;28;20503;-69
2022/08/07 13:05:35;;;;;;;6.93;3.88;;;22.90;88.60;;;;;;5109328;28;20062;-69
2022/08/07 13:08:38;;;;;;;7.97;3.83;;;23.10;89.00;;;;;;5075215;28;20403;-69
2022/08/07 13:11:24;;;;;;;9.20;3.80;;;23.40;88.90;;;;;;5091902;28;20082;-69
2022/08/07 13:14:06;;;;;;;6.80;3.83;;;22.50;88.00;;;;;;5091971;28;20507;-69
2022/08/07 13:16:44;;;;;;;;;;;23.00;79.30;;;;;;5092683;28;20039;-69
2022/08/07 13:19:34;;;;;;;8.57;3.53;;;23.00;87.90;;;;;;5108885;28;19919;-69
2022/08/07 13:22:04;;;;;;;8.23;3.70;;;23.20;87.60;;;;;;5075082;28;20055;-69
2022/08/07 13:24:49;;;;;;;8.65;3.95;;;23.20;86.80;;;;;;5091826;28;20097;-69
2022/08/07 13:27:40;;;;;;;8.77;3.90;;;24.50;85.90;;;;;;5075295;28;20043;-69
2022/08/07 13:30:13;;;;;;;6.63;3.65;;;23.90;85.90;;;;;;5091888;28;20040;-69
2022/08/07 13:33:03;;;;;;;6.72;4.13;;;24.50;85.10;;;;;;5091933;28;20036;-69
2022/08/07 13:36:14;;;;;;;6.05;3.50;;;24.60;85.20;;;;;;5091879;28;20039;-69
2022/08/07 13:38:59;;;;;;;7.25;3.67;;;24.40;85.10;;;;;;5076905;28;20052;-69
2022/08/07 13:41:44;;;;;;;12.55;3.88;;;24.10;85.60;;;;;;5091837;28;20119;-69
2022/08/07 13:44:11;;;;;;;9.50;3.92;;;22.80;85.60;;;;;;5091653;28;20055;-69
2022/08/07 13:46:46;;;;;;;10.48;3.72;;;23.40;86.10;;;;;;5092992;28;20040;-69
2022/08/07 13:49:15;;;;;;;8.35;4.03;;;23.70;86.10;;;;;;5092910;28;20396;-69